createdAt,value
2022-12-31T00:02:59.196Z,11.88
2022-12-31T00:06:00.548Z,11.70
2022-12-31T00:09:01.856Z,13.57
2022-12-31T00:12:03.161Z,11.15
2022-12-31T00:15:04.488Z,12.13
2022-12-31T00:18:05.815Z,11.57
2022-12-31T00:21:07.117Z,11.80
2022-12-31T00:24:08.412Z,10.63
2022-12-31T00:27:09.733Z,11.35
2022-12-31T00:30:11.022Z,10.98
2022-12-31T00:33:12.330Z,13.27
2022-12-31T00:36:13.622Z,10.73
2022-12-31T00:39:15.062Z,10.57
2022-12-31T00:42:16.369Z,11.57
2022-12-31T00:45:17.690Z,11.38
2022-12-31T00:48:19.003Z,10.68
2022-12-31T00:51:20.317Z,10.32
2022-12-31T00:54:21.602Z,11.50
2022-12-31T00:57:22.908Z,11.15
2022-12-31T01:00:24.205Z,11.82
2022-12-31T01:03:25.624Z,10.68
2022-12-31T01:06:26.952Z,9.68
2022-12-31T01:09:28.260Z,12.07
2022-12-31T01:12:29.572Z,10.48
2022-12-31T01:15:30.914Z,9.82
2022-12-31T01:18:32.196Z,10.95
2022-12-31T01:21:33.563Z,10.00
2022-12-31T01:24:34.844Z,9.60
2022-12-31T01:27:36.133Z,9.98
2022-12-31T01:30:37.493Z,9.73
2022-12-31T01:33:38.881Z,9.68
2022-12-31T01:36:40.176Z,8.93
2022-12-31T01:39:41.491Z,10.00
2022-12-31T01:42:42.777Z,10.07
2022-12-31T01:45:44.113Z,9.48
2022-12-31T01:48:45.408Z,10.70
2022-12-31T01:51:46.708Z,9.55
2022-12-31T01:54:48.078Z,8.73
2022-12-31T01:57:49.381Z,9.32
2022-12-31T02:00:50.692Z,10.00
2022-12-31T02:03:51.999Z,9.20
2022-12-31T02:06:53.319Z,9.13
2022-12-31T02:09:54.629Z,8.47
2022-12-31T02:12:56.006Z,9.57
2022-12-31T02:15:57.451Z,8.43
2022-12-31T02:18:58.784Z,9.50
2022-12-31T02:22:00.130Z,9.15
2022-12-31T02:25:01.631Z,8.43
2022-12-31T02:28:02.925Z,9.23
2022-12-31T02:31:04.249Z,7.93
2022-12-31T02:34:05.599Z,9.32
2022-12-31T02:37:06.923Z,8.35
2022-12-31T02:40:08.216Z,8.57
2022-12-31T02:43:09.527Z,8.50
2022-12-31T02:46:10.893Z,8.93
2022-12-31T02:49:13.452Z,8.73
2022-12-31T02:52:14.767Z,9.07
2022-12-31T02:55:16.096Z,8.87
2022-12-31T02:58:17.409Z,8.77
2022-12-31T03:01:18.824Z,9.18
2022-12-31T03:04:20.202Z,7.10
2022-12-31T03:07:21.489Z,8.07
2022-12-31T03:10:22.791Z,9.43
2022-12-31T03:13:24.096Z,8.88
2022-12-31T03:16:25.453Z,7.43
2022-12-31T03:19:26.804Z,7.53
2022-12-31T03:22:28.146Z,9.10
2022-12-31T03:25:29.438Z,9.53
2022-12-31T03:28:30.748Z,8.30
2022-12-31T03:31:32.116Z,7.68
2022-12-31T03:34:33.511Z,7.30
2022-12-31T03:37:34.805Z,7.85
2022-12-31T03:40:36.123Z,7.07
2022-12-31T03:43:37.433Z,7.20
2022-12-31T03:46:38.719Z,8.95
2022-12-31T03:49:40.018Z,7.97
2022-12-31T03:52:41.355Z,7.47
2022-12-31T03:55:42.680Z,7.93
2022-12-31T03:58:43.986Z,7.30
2022-12-31T04:01:45.383Z,8.00
2022-12-31T04:04:46.771Z,7.05
2022-12-31T04:07:48.109Z,7.30
2022-12-31T04:10:49.399Z,7.77
2022-12-31T04:13:50.701Z,7.25
2022-12-31T04:16:52.004Z,6.22
2022-12-31T04:19:53.314Z,7.07
2022-12-31T04:22:54.624Z,7.53
2022-12-31T04:25:55.924Z,7.87
2022-12-31T04:28:57.230Z,6.85
2022-12-31T04:31:58.553Z,7.30
2022-12-31T04:34:59.933Z,7.50
2022-12-31T04:38:01.241Z,6.97
2022-12-31T04:41:02.559Z,7.73
2022-12-31T04:44:03.873Z,6.80
2022-12-31T04:47:05.174Z,6.03
2022-12-31T04:50:06.477Z,8.25
2022-12-31T04:53:07.773Z,7.22
2022-12-31T04:56:09.085Z,7.93
2022-12-31T04:59:10.436Z,7.65
2022-12-31T05:02:11.910Z,5.35
2022-12-31T05:05:13.334Z,5.57
2022-12-31T05:08:14.653Z,6.65
2022-12-31T05:11:15.932Z,6.67
2022-12-31T05:14:17.255Z,7.40
2022-12-31T05:17:18.564Z,6.32
2022-12-31T05:20:19.876Z,6.20
2022-12-31T05:23:21.173Z,6.50
2022-12-31T05:26:22.483Z,5.87
2022-12-31T05:29:23.779Z,6.65
2022-12-31T05:32:25.099Z,5.63
2022-12-31T05:35:26.390Z,5.95
2022-12-31T05:38:27.711Z,6.05
2022-12-31T05:41:28.997Z,5.17
2022-12-31T05:44:30.295Z,5.57
2022-12-31T05:47:31.580Z,6.05
2022-12-31T05:50:32.894Z,5.28
2022-12-31T05:53:34.220Z,5.75
2022-12-31T05:56:35.559Z,5.90
2022-12-31T05:59:36.856Z,6.40
2022-12-31T06:02:38.247Z,6.30
2022-12-31T06:05:39.582Z,7.38
2022-12-31T06:08:40.895Z,7.70
2022-12-31T06:11:42.165Z,8.00
2022-12-31T06:14:45.729Z,7.45
2022-12-31T06:17:47.268Z,6.50
2022-12-31T06:20:48.569Z,6.80
2022-12-31T06:23:49.876Z,7.45
2022-12-31T06:26:51.184Z,7.47
2022-12-31T06:29:52.481Z,8.25
2022-12-31T06:32:53.873Z,9.20
2022-12-31T06:35:55.170Z,8.20
2022-12-31T06:38:56.478Z,8.50
2022-12-31T06:41:57.780Z,9.23
2022-12-31T06:44:59.170Z,8.98
2022-12-31T06:48:00.491Z,9.07
2022-12-31T06:51:01.838Z,10.98
2022-12-31T06:54:03.179Z,10.95
2022-12-31T06:57:04.490Z,10.87
2022-12-31T07:00:05.849Z,11.73
2022-12-31T07:03:07.180Z,11.75
2022-12-31T07:06:08.520Z,13.23
2022-12-31T07:09:09.835Z,11.68
2022-12-31T07:12:11.146Z,12.07
2022-12-31T07:15:12.440Z,12.18
2022-12-31T07:18:13.778Z,11.98
2022-12-31T07:21:15.063Z,12.30
2022-12-31T07:24:16.385Z,13.93
2022-12-31T07:27:17.685Z,12.33
2022-12-31T07:30:19.004Z,12.60
2022-12-31T07:33:20.312Z,13.20
2022-12-31T07:36:21.611Z,13.13
2022-12-31T07:39:22.928Z,13.85
2022-12-31T07:42:24.235Z,13.73
2022-12-31T07:45:25.533Z,12.68
2022-12-31T07:48:26.822Z,13.38
2022-12-31T07:51:28.136Z,14.55
2022-12-31T07:54:29.438Z,13.35
2022-12-31T07:57:30.725Z,13.10
2022-12-31T08:00:32.054Z,12.65
2022-12-31T08:03:33.392Z,12.52
2022-12-31T08:06:34.684Z,12.27
2022-12-31T08:09:35.984Z,12.45
2022-12-31T08:12:37.288Z,12.60
2022-12-31T08:15:38.579Z,12.05
2022-12-31T08:18:39.877Z,11.63
2022-12-31T08:21:41.180Z,11.32
2022-12-31T08:24:42.509Z,11.48
2022-12-31T08:27:43.777Z,11.63
2022-12-31T08:30:45.100Z,10.82
2022-12-31T08:33:46.405Z,12.55
2022-12-31T08:36:47.720Z,10.13
2022-12-31T08:39:49.028Z,10.82
2022-12-31T08:42:50.337Z,12.47
2022-12-31T08:45:51.686Z,11.07
2022-12-31T08:48:53.052Z,10.73
2022-12-31T08:51:54.351Z,11.80
2022-12-31T08:54:55.683Z,10.85
2022-12-31T08:57:56.985Z,10.70
2022-12-31T09:00:58.377Z,10.52
2022-12-31T09:03:59.769Z,11.32
2022-12-31T09:07:01.119Z,9.77
2022-12-31T09:10:02.420Z,9.95
2022-12-31T09:13:03.740Z,10.53
2022-12-31T09:16:05.116Z,9.13
2022-12-31T09:19:06.563Z,11.20
2022-12-31T09:22:07.851Z,9.40
2022-12-31T09:25:09.149Z,9.38
2022-12-31T09:28:10.443Z,9.27
2022-12-31T09:31:11.741Z,9.25
2022-12-31T09:34:13.039Z,11.35
2022-12-31T09:37:14.466Z,10.63
2022-12-31T09:40:15.762Z,9.55
2022-12-31T09:43:17.075Z,11.03
2022-12-31T09:46:18.446Z,8.52
2022-12-31T09:49:19.746Z,11.40
2022-12-31T09:52:21.056Z,8.57
2022-12-31T09:55:22.344Z,9.75
2022-12-31T09:58:23.653Z,8.77
2022-12-31T10:01:25.156Z,10.05
2022-12-31T10:04:26.538Z,9.02
2022-12-31T10:07:27.838Z,9.80
2022-12-31T10:10:29.146Z,10.52
2022-12-31T10:13:30.443Z,9.60
2022-12-31T10:16:31.771Z,9.80
2022-12-31T10:19:33.115Z,10.75
2022-12-31T10:22:34.421Z,11.05
2022-12-31T10:25:38.572Z,8.90
2022-12-31T10:28:40.954Z,9.33
2022-12-31T10:31:42.257Z,8.75
2022-12-31T10:34:43.592Z,8.77
2022-12-31T10:37:44.887Z,10.02
2022-12-31T10:40:46.203Z,9.30
2022-12-31T10:43:47.526Z,10.20
2022-12-31T10:46:48.908Z,8.93
2022-12-31T10:49:50.343Z,8.95
2022-12-31T10:52:51.681Z,10.40
2022-12-31T10:55:52.995Z,9.70
2022-12-31T10:58:54.281Z,8.40
2022-12-31T11:01:55.644Z,9.23
2022-12-31T11:04:56.980Z,9.13
2022-12-31T11:07:58.287Z,8.70
2022-12-31T11:10:59.601Z,8.35
2022-12-31T11:14:00.995Z,9.13
2022-12-31T11:17:02.327Z,9.50
2022-12-31T11:20:03.641Z,8.20
2022-12-31T11:23:04.957Z,8.20
2022-12-31T11:26:06.299Z,9.75
2022-12-31T11:29:07.591Z,7.53
2022-12-31T11:32:08.912Z,8.25
2022-12-31T11:35:10.202Z,9.52
2022-12-31T11:38:11.556Z,7.95
2022-12-31T11:41:12.878Z,8.63
2022-12-31T11:44:14.184Z,9.10
2022-12-31T11:47:15.472Z,8.50
2022-12-31T11:50:16.805Z,7.78
2022-12-31T11:53:18.086Z,10.02
2022-12-31T11:56:19.419Z,8.20
2022-12-31T11:59:20.723Z,9.40
2022-12-31T12:02:22.070Z,8.02
2022-12-31T12:05:23.401Z,8.80
2022-12-31T12:08:24.680Z,7.63
2022-12-31T12:11:25.983Z,8.48
2022-12-31T12:14:27.272Z,7.67
2022-12-31T12:17:28.604Z,8.63
2022-12-31T12:20:29.943Z,8.68
2022-12-31T12:23:31.272Z,7.65
2022-12-31T12:26:32.563Z,8.52
2022-12-31T12:29:33.877Z,8.57
2022-12-31T12:32:35.185Z,7.80
2022-12-31T12:35:36.495Z,8.18
2022-12-31T12:38:37.800Z,7.75
2022-12-31T12:41:39.117Z,9.75
2022-12-31T12:44:40.416Z,9.30
2022-12-31T12:47:41.736Z,8.40
2022-12-31T12:50:43.058Z,8.60
2022-12-31T12:53:44.379Z,8.10
2022-12-31T12:56:45.701Z,7.43
2022-12-31T12:59:46.999Z,7.27
2022-12-31T13:02:48.385Z,7.20
2022-12-31T13:05:49.700Z,6.75
2022-12-31T13:08:51.015Z,8.00
2022-12-31T13:11:52.300Z,7.57
2022-12-31T13:14:53.654Z,7.07
2022-12-31T13:17:59.968Z,6.65
2022-12-31T13:21:02.891Z,7.38
2022-12-31T13:24:04.195Z,7.32
2022-12-31T13:27:05.520Z,7.55
2022-12-31T13:30:06.815Z,7.07
2022-12-31T13:33:08.123Z,7.60
2022-12-31T13:36:09.407Z,7.30
2022-12-31T13:39:10.726Z,7.32
2022-12-31T13:42:12.028Z,7.75
2022-12-31T13:45:13.337Z,7.60
2022-12-31T13:48:14.626Z,6.53
2022-12-31T13:51:15.935Z,7.22
2022-12-31T13:54:17.226Z,6.95
2022-12-31T13:57:18.557Z,7.20
2022-12-31T14:00:19.881Z,9.77
2022-12-31T14:03:21.222Z,7.40
2022-12-31T14:06:22.531Z,6.68
2022-12-31T14:09:23.826Z,6.13
2022-12-31T14:12:25.133Z,6.88
2022-12-31T14:15:26.404Z,7.87
2022-12-31T14:18:27.706Z,7.50
2022-12-31T14:21:28.996Z,10.38
2022-12-31T14:24:30.368Z,6.15
2022-12-31T14:27:31.673Z,7.75
2022-12-31T14:30:33.015Z,7.33
2022-12-31T14:33:34.318Z,7.30
2022-12-31T14:36:35.628Z,6.53
2022-12-31T14:39:36.924Z,7.28
2022-12-31T14:42:38.244Z,5.90
2022-12-31T14:45:39.618Z,6.67
2022-12-31T14:48:40.949Z,8.23
2022-12-31T14:51:42.280Z,6.78
2022-12-31T14:54:43.595Z,6.50
2022-12-31T14:58:17.234Z,7.35
2022-12-31T15:01:06.231Z,6.37
2022-12-31T15:04:07.586Z,6.10
2022-12-31T15:07:08.903Z,7.05
2022-12-31T15:10:10.218Z,6.35
2022-12-31T15:13:11.536Z,8.02
2022-12-31T15:16:12.815Z,6.90
2022-12-31T15:19:14.122Z,6.65
2022-12-31T15:22:15.418Z,7.68
2022-12-31T15:25:16.724Z,6.40
2022-12-31T15:28:18.097Z,6.68
2022-12-31T15:31:20.188Z,5.83
2022-12-31T15:34:21.789Z,6.60
2022-12-31T15:37:23.134Z,6.80
2022-12-31T15:40:24.475Z,8.68
2022-12-31T15:43:25.776Z,6.00
2022-12-31T15:46:27.131Z,6.27
2022-12-31T15:49:28.435Z,6.47
2022-12-31T15:52:29.738Z,6.30
2022-12-31T15:55:31.051Z,6.78
2022-12-31T15:58:32.374Z,6.90
2022-12-31T16:01:33.757Z,7.87
2022-12-31T16:04:35.157Z,6.72
2022-12-31T16:07:36.481Z,6.93
2022-12-31T16:10:37.803Z,6.30
2022-12-31T16:13:39.118Z,7.05
2022-12-31T16:16:40.406Z,6.43
2022-12-31T16:19:41.763Z,6.68
2022-12-31T16:22:43.078Z,7.60
2022-12-31T16:25:44.406Z,6.80
2022-12-31T16:28:45.703Z,7.15
2022-12-31T16:31:47.018Z,6.93
2022-12-31T16:34:48.349Z,7.05
2022-12-31T16:37:49.649Z,7.30
2022-12-31T16:40:50.987Z,7.53
2022-12-31T16:43:52.331Z,6.97
2022-12-31T16:46:53.671Z,6.90
2022-12-31T16:49:55.034Z,8.38
2022-12-31T16:52:56.414Z,6.72
2022-12-31T16:55:57.763Z,6.38
2022-12-31T16:58:59.072Z,8.57
2022-12-31T17:02:00.418Z,6.83
2022-12-31T17:05:01.788Z,7.38
2022-12-31T17:08:03.092Z,6.53
2022-12-31T17:11:04.411Z,6.45
2022-12-31T17:14:05.706Z,6.53
2022-12-31T17:17:07.060Z,7.13
2022-12-31T17:20:08.384Z,6.53
2022-12-31T17:23:09.708Z,8.38
2022-12-31T17:26:10.994Z,7.82
2022-12-31T17:29:12.307Z,7.72
2022-12-31T17:32:13.595Z,7.57
2022-12-31T17:35:14.911Z,8.18
2022-12-31T17:38:16.227Z,8.05
2022-12-31T17:41:17.549Z,7.05
2022-12-31T17:44:18.869Z,7.18
2022-12-31T17:47:20.171Z,7.70
2022-12-31T17:50:21.474Z,7.03
2022-12-31T17:53:22.786Z,7.68
2022-12-31T17:56:24.074Z,8.20
2022-12-31T17:59:25.376Z,7.65
2022-12-31T18:02:26.778Z,7.10
2022-12-31T18:05:28.119Z,6.18
2022-12-31T18:08:29.436Z,8.75
2022-12-31T18:11:30.758Z,7.72
2022-12-31T18:14:32.099Z,7.05
2022-12-31T18:17:33.406Z,7.97
2022-12-31T18:20:34.737Z,8.38
2022-12-31T18:23:36.018Z,7.93
2022-12-31T18:26:37.371Z,7.88
2022-12-31T18:29:38.674Z,8.30
2022-12-31T18:32:40.064Z,6.90
2022-12-31T18:36:07.816Z,7.95
2022-12-31T18:39:02.641Z,7.93
2022-12-31T18:42:03.954Z,8.32
2022-12-31T18:45:05.310Z,8.55
2022-12-31T18:48:06.690Z,7.57
2022-12-31T18:51:08.000Z,8.65
2022-12-31T18:54:09.336Z,8.80
2022-12-31T18:57:10.615Z,7.63
2022-12-31T19:00:11.921Z,8.60
2022-12-31T19:03:13.264Z,7.67
2022-12-31T19:06:14.659Z,8.52
2022-12-31T19:09:43.314Z,7.80
2022-12-31T19:12:37.224Z,8.80
2022-12-31T19:15:38.535Z,7.13
2022-12-31T19:18:39.838Z,8.43
2022-12-31T19:21:41.141Z,9.13
2022-12-31T19:24:42.434Z,7.20
2022-12-31T19:27:43.729Z,7.72
2022-12-31T19:30:45.014Z,7.65
2022-12-31T19:33:46.291Z,8.57
2022-12-31T19:36:47.634Z,8.30
2022-12-31T19:39:48.992Z,7.38
2022-12-31T19:42:50.304Z,7.05
2022-12-31T19:45:51.671Z,7.32
2022-12-31T19:48:53.043Z,8.43
2022-12-31T19:51:54.351Z,8.15
2022-12-31T19:54:55.643Z,8.88
2022-12-31T19:57:56.983Z,7.68
2022-12-31T20:01:02.362Z,8.50
2022-12-31T20:04:04.683Z,8.03
2022-12-31T20:07:05.973Z,8.15
2022-12-31T20:10:07.300Z,8.20
2022-12-31T20:13:08.593Z,6.85
2022-12-31T20:16:10.026Z,7.97
2022-12-31T20:19:11.410Z,7.53
2022-12-31T20:22:12.804Z,10.38
2022-12-31T20:25:14.098Z,8.23
2022-12-31T20:28:15.399Z,9.15
2022-12-31T20:31:16.832Z,8.75
2022-12-31T20:34:18.219Z,8.23
2022-12-31T20:37:19.508Z,7.45
2022-12-31T20:40:20.802Z,7.95
2022-12-31T20:43:22.094Z,8.52
2022-12-31T20:46:23.435Z,7.88
2022-12-31T20:49:44.839Z,7.63
2022-12-31T20:52:46.051Z,7.97
2022-12-31T20:55:47.337Z,7.63
2022-12-31T20:58:48.648Z,7.70
2022-12-31T21:02:20.060Z,9.20
2022-12-31T21:05:11.622Z,7.87
2022-12-31T21:08:13.131Z,7.35
2022-12-31T21:11:14.438Z,8.27
2022-12-31T21:14:15.734Z,8.13
2022-12-31T21:17:17.061Z,7.40
2022-12-31T21:20:18.381Z,7.53
2022-12-31T21:23:19.664Z,8.73
2022-12-31T21:26:20.981Z,7.93
2022-12-31T21:29:22.306Z,8.40
2022-12-31T21:32:23.603Z,7.75
2022-12-31T21:35:43.296Z,8.20
2022-12-31T21:38:44.992Z,8.32
2022-12-31T21:41:46.291Z,8.00
2022-12-31T21:44:47.624Z,7.45
2022-12-31T21:47:48.965Z,8.13
2022-12-31T21:50:50.288Z,9.23
2022-12-31T21:53:51.596Z,8.50
2022-12-31T21:56:52.916Z,7.82
2022-12-31T22:00:24.135Z,7.18
2022-12-31T22:03:15.573Z,7.57
2022-12-31T22:06:16.960Z,7.57
2022-12-31T22:09:18.261Z,7.82
2022-12-31T22:12:19.626Z,10.52
2022-12-31T22:15:20.917Z,6.78
2022-12-31T22:18:22.237Z,7.78
2022-12-31T22:21:23.535Z,9.13
2022-12-31T22:24:24.844Z,7.35
2022-12-31T22:27:28.311Z,7.05
2022-12-31T22:30:30.978Z,7.43
2022-12-31T22:33:32.296Z,8.00
2022-12-31T22:36:33.612Z,6.83
2022-12-31T22:39:43.471Z,6.68
2022-12-31T22:42:46.147Z,7.03
2022-12-31T22:45:47.441Z,6.85
2022-12-31T22:48:48.753Z,6.10
2022-12-31T22:51:56.549Z,8.43
2022-12-31T22:55:00.202Z,6.63
2022-12-31T22:58:01.541Z,6.85
2022-12-31T23:01:02.912Z,6.90
2022-12-31T23:04:04.318Z,7.88
2022-12-31T23:07:05.719Z,7.10
2022-12-31T23:10:07.028Z,6.00
2022-12-31T23:13:08.340Z,7.57
2022-12-31T23:16:09.726Z,7.10
2022-12-31T23:19:11.173Z,7.15
2022-12-31T23:22:12.487Z,6.70
2022-12-31T23:25:13.765Z,7.40
2022-12-31T23:28:15.081Z,7.22
2022-12-31T23:31:16.441Z,6.15
2022-12-31T23:34:17.822Z,6.68
2022-12-31T23:37:19.114Z,6.37
2022-12-31T23:40:21.844Z,5.93
2022-12-31T23:43:23.436Z,8.40
2022-12-31T23:46:24.798Z,6.40
2022-12-31T23:49:26.151Z,5.97
2022-12-31T23:52:27.451Z,6.13
2022-12-31T23:55:28.747Z,5.78
2022-12-31T23:58:30.121Z,6.80
